Time;durP1;ratioP1;P1;durP2;ratioP2;P2;SDS_P1;SDS_P2;PMS_P1;PMS_P2;Temp;Humidity;BMP_temperature;BMP_pressure;BME280_temperature;BME280_humidity;BME280_pressure;Samples;Min_cycle;Max_cycle;Signal;HPM_P1;HPM_P2
2022/01/26 00:07:25;;;;;;;13.38;8.02;;;;;;;;;;5031184;28;20041;-80
2022/01/26 00:09:52;;;;;;;15.45;8.10;;;;;;;;;;5034946;28;20499;-79
2022/01/26 00:12:23;;;;;;;14.82;7.50;;;;;;;;;;5046856;28;20057;-76
2022/01/26 00:14:51;;;;;;;15.15;7.63;;;;;;;;;;5050331;28;20041;-77
2022/01/26 00:17:20;;;;;;;15.77;7.13;;;;;;;;;;5052553;28;20124;-78
2022/01/26 00:22:38;;;;;;;15.80;7.93;;;;;;;;;;5054580;28;20039;-78
2022/01/26 00:28:08;;;;;;;12.10;7.30;;;;;;;;;;5054867;28;20045;-76
2022/01/26 00:41:08;;;;;;;14.25;5.97;;;;;;;;;;5054691;28;20044;-78
2022/01/26 00:43:38;;;;;;;11.73;6.43;;;;;;;;;;5054372;28;20033;-77
2022/01/26 00:46:07;;;;;;;15.10;6.05;;;;;;;;;;5054473;28;20467;-77
2022/01/26 00:48:39;;;;;;;9.27;5.80;;;;;;;;;;5054383;28;20041;-78
2022/01/26 00:51:14;;;;;;;8.63;5.63;;;;;;;;;;5054370;28;20525;-77
2022/01/26 00:53:48;;;;;;;10.38;5.78;;;;;;;;;;5053499;28;20043;-77
2022/01/26 00:56:16;;;;;;;9.02;5.50;;;;;;;;;;5054244;28;20049;-77
2022/01/26 00:58:44;;;;;;;8.77;5.57;;;;;;;;;;5052673;28;20043;-76
2022/01/26 01:01:12;;;;;;;7.18;5.15;;;;;;;;;;5053824;28;20044;-77
2022/01/26 01:03:45;;;;;;;9.07;6.13;;;;;;;;;;5052694;28;20048;-77
2022/01/26 01:06:19;;;;;;;11.32;5.43;;;;;;;;;;5054248;28;20526;-76
2022/01/26 01:08:47;;;;;;;12.73;5.68;;;;;;;;;;5052756;28;20519;-77
2022/01/26 01:11:15;;;;;;;6.60;4.70;;;;;;;;;;5053803;28;20103;-77
2022/01/26 01:13:43;;;;;;;9.00;5.00;;;;;;;;;;5053799;28;20041;-77
2022/01/26 01:16:13;;;;;;;6.35;5.05;;;;;;;;;;5054082;28;20052;-77
2022/01/26 01:26:59;;;;;;;10.95;5.07;;;;;;;;;;5054089;28;20037;-77
2022/01/26 01:29:44;;;;;;;7.43;4.57;;;;;;;;;;5051688;28;20053;-77
2022/01/26 01:32:27;;;;;;;9.18;4.60;;;;;;;;;;5051693;28;20461;-77
2022/01/26 01:34:59;;;;;;;5.82;3.20;;;;;;;;;;5051820;28;20049;-77
2022/01/26 01:37:27;;;;;;;9.40;3.78;;;;;;;;;;5050994;28;20128;-78
2022/01/26 01:39:54;;;;;;;4.45;3.08;;;;;;;;;;5034398;28;20503;-76
2022/01/26 01:42:22;;;;;;;7.03;3.38;;;;;;;;;;5051321;28;20044;-76
2022/01/26 01:44:49;;;;;;;5.65;2.70;;;;;;;;;;5051310;28;20037;-76
2022/01/26 01:47:20;;;;;;;5.15;3.40;;;;;;;;;;5051398;28;20049;-79
2022/01/26 01:49:48;;;;;;;5.47;3.17;;;;;;;;;;5051163;28;20071;-77
2022/01/26 01:52:19;;;;;;;5.30;3.28;;;;;;;;;;5051364;28;20048;-77
2022/01/26 01:54:51;;;;;;;5.25;3.00;;;;;;;;;;5051658;28;20053;-77
2022/01/26 01:57:23;;;;;;;5.60;2.75;;;;;;;;;;5050981;28;20064;-78
2022/01/26 01:59:52;;;;;;;4.28;3.20;;;;;;;;;;5051362;28;20084;-78
2022/01/26 02:02:20;;;;;;;4.28;2.90;;;;;;;;;;5053105;28;20037;-78
2022/01/26 02:04:48;;;;;;;4.57;2.58;;;;;;;;;;5053158;28;20033;-76
2022/01/26 02:07:16;;;;;;;6.32;3.03;;;;;;;;;;5052178;28;20399;-76
2022/01/26 02:09:49;;;;;;;4.28;3.45;;;;;;;;;;5052970;28;20060;-78
2022/01/26 02:12:23;;;;;;;4.55;2.75;;;;;;;;;;5048687;28;20451;-78
2022/01/26 02:15:04;;;;;;;4.40;2.63;;;;;;;;;;5033654;28;20049;-76
2022/01/26 03:00:21;;;;;;;4.45;2.97;;;;;;;;;;5034829;28;20366;-78
2022/01/26 03:02:29;;;;;;;3.25;2.65;;;;;;;;;;5027233;28;20072;-76
2022/01/26 03:04:59;;;;;;;6.95;3.33;;;;;;;;;;5036243;28;20049;-75
2022/01/26 03:07:41;;;;;;;4.15;3.05;;;;;;;;;;5036354;28;20057;-76
2022/01/26 03:10:19;;;;;;;6.38;3.33;;;;;;;;;;5036174;28;20041;-75
2022/01/26 03:13:07;;;;;;;5.20;3.20;;;;;;;;;;5035808;28;20049;-76
2022/01/26 03:15:40;;;;;;;4.93;2.90;;;;;;;;;;5036547;28;20056;-76
2022/01/26 03:21:01;;;;;;;3.67;2.80;;;;;;;;;;5036145;28;20466;-76
2022/01/26 03:29:25;;;;;;;4.40;2.85;;;;;;;;;;5035616;28;20595;-75
2022/01/26 03:32:40;;;;;;;4.32;3.15;;;;;;;;;;5035857;28;20120;-76
2022/01/26 03:34:53;;;;;;;4.10;2.65;;;;;;;;;;5035762;28;20056;-75
2022/01/26 03:37:25;;;;;;;3.20;2.85;;;;;;;;;;5035550;28;20137;-76
2022/01/26 03:39:54;;;;;;;3.72;2.78;;;;;;;;;;5035471;28;20050;-76
2022/01/26 03:42:21;;;;;;;3.88;2.90;;;;;;;;;;5034002;28;20437;-75
2022/01/26 03:44:49;;;;;;;5.47;3.20;;;;;;;;;;5035405;28;20041;-75
2022/01/26 03:47:18;;;;;;;4.18;3.03;;;;;;;;;;5035494;28;20045;-76
2022/01/26 03:49:47;;;;;;;4.78;3.13;;;;;;;;;;5034979;28;20050;-75
2022/01/26 03:52:16;;;;;;;4.78;2.70;;;;;;;;;;5035514;28;20452;-77
2022/01/26 03:54:44;;;;;;;3.80;2.78;;;;;;;;;;5034008;28;20396;-76
2022/01/26 03:57:12;;;;;;;4.72;2.78;;;;;;;;;;5034888;28;20046;-76
2022/01/26 03:59:39;;;;;;;4.63;3.05;;;;;;;;;;5035112;28;20037;-75
2022/01/26 04:02:08;;;;;;;5.22;2.85;;;;;;;;;;5034445;28;20385;-76
2022/01/26 04:04:44;;;;;;;5.00;3.22;;;;;;;;;;5033654;28;20547;-77
2022/01/26 04:07:15;;;;;;;7.00;3.28;;;;;;;;;;5033752;28;20052;-75
2022/01/26 04:09:44;;;;;;;6.05;2.80;;;;;;;;;;5033477;28;20046;-77
2022/01/26 04:12:17;;;;;;;3.83;3.03;;;;;;;;;;5034660;28;20059;-75
2022/01/26 04:14:53;;;;;;;4.68;3.25;;;;;;;;;;5035080;28;20047;-75
2022/01/26 04:17:21;;;;;;;7.95;3.20;;;;;;;;;;5033437;28;20042;-76
2022/01/26 04:19:56;;;;;;;4.57;3.05;;;;;;;;;;5034784;28;20176;-75
2022/01/26 04:22:32;;;;;;;3.80;2.88;;;;;;;;;;5034958;28;20044;-76
2022/01/26 04:25:01;;;;;;;5.43;2.97;;;;;;;;;;5034337;28;20044;-75
2022/01/26 04:27:41;;;;;;;10.95;2.95;;;;;;;;;;5033887;28;20045;-76
2022/01/26 04:30:10;;;;;;;9.32;3.28;;;;;;;;;;5034712;28;20618;-76
2022/01/26 04:32:39;;;;;;;7.65;2.90;;;;;;;;;;5034285;28;20049;-76
2022/01/26 04:35:08;;;;;;;6.03;2.67;;;;;;;;;;5033167;28;20152;-79
2022/01/26 04:40:10;;;;;;;5.13;2.78;;;;;;;;;;5034521;28;20048;-77
2022/01/26 04:45:11;;;;;;;6.13;3.30;;;;;;;;;;5053862;28;20041;-77
2022/01/26 04:47:43;;;;;;;4.32;2.83;;;;;;;;;;5054231;28;20037;-76
2022/01/26 04:50:16;;;;;;;4.00;2.78;;;;;;;;;;5054077;28;20047;-75
2022/01/26 04:52:46;;;;;;;4.07;2.67;;;;;;;;;;5054343;28;20045;-75
2022/01/26 04:55:14;;;;;;;5.05;2.58;;;;;;;;;;5053876;28;20145;-75
2022/01/26 04:57:46;;;;;;;5.13;3.15;;;;;;;;;;5052767;28;20152;-78
2022/01/26 05:00:17;;;;;;;7.40;3.17;;;;;;;;;;5053541;28;20048;-77
2022/01/26 05:02:45;;;;;;;5.78;3.15;;;;;;;;;;5054013;28;20052;-77
2022/01/26 05:05:13;;;;;;;5.30;3.10;;;;;;;;;;5052461;28;20504;-76
2022/01/26 05:07:41;;;;;;;6.10;3.03;;;;;;;;;;5053806;28;20047;-76
2022/01/26 05:10:13;;;;;;;4.93;3.10;;;;;;;;;;5054040;28;20452;-77
2022/01/26 05:12:41;;;;;;;3.60;2.75;;;;;;;;;;5050839;28;20080;-77
2022/01/26 05:15:13;;;;;;;5.10;3.53;;;;;;;;;;5053441;28;20049;-77
2022/01/26 05:17:41;;;;;;;6.88;3.15;;;;;;;;;;5053615;28;20036;-78
2022/01/26 05:20:10;;;;;;;7.15;3.00;;;;;;;;;;5052403;28;20041;-77
2022/01/26 05:22:40;;;;;;;6.47;3.15;;;;;;;;;;5053667;28;20056;-77
2022/01/26 05:25:09;;;;;;;4.22;3.10;;;;;;;;;;5053304;28;20124;-78
2022/01/26 05:27:38;;;;;;;4.28;2.85;;;;;;;;;;5053470;28;20041;-78
2022/01/26 05:30:09;;;;;;;3.47;2.90;;;;;;;;;;5053469;28;20041;-78
2022/01/26 05:32:37;;;;;;;6.50;3.10;;;;;;;;;;5035880;28;20453;-79
2022/01/26 05:35:05;;;;;;;3.33;2.80;;;;;;;;;;5053391;28;20523;-77
2022/01/26 05:37:40;;;;;;;6.65;3.15;;;;;;;;;;5052968;28;20048;-75
2022/01/26 05:40:12;;;;;;;4.88;2.90;;;;;;;;;;5053324;28;20036;-76
2022/01/26 05:42:43;;;;;;;6.03;2.97;;;;;;;;;;5053266;28;20433;-76
2022/01/26 05:45:22;;;;;;;19.23;11.18;;;;;;;;;;5052918;28;20037;-77
2022/01/26 05:47:50;;;;;;;8.32;4.95;;;;;;;;;;5053402;28;20413;-78
2022/01/26 05:50:19;;;;;;;8.27;4.07;;;;;;;;;;5052228;28;20037;-77
2022/01/26 05:52:46;;;;;;;8.20;5.00;;;;;;;;;;5033915;28;20046;-77
2022/01/26 05:55:14;;;;;;;6.22;4.05;;;;;;;;;;5033096;28;20053;-77
2022/01/26 05:57:44;;;;;;;7.93;3.83;;;;;;;;;;5031743;28;20041;-75
2022/01/26 06:00:12;;;;;;;5.80;3.53;;;;;;;;;;5032258;28;20041;-75
2022/01/26 06:02:42;;;;;;;5.80;3.42;;;;;;;;;;5046981;28;20052;-75
2022/01/26 06:05:10;;;;;;;6.22;3.15;;;;;;;;;;5052622;28;20444;-76
2022/01/26 06:07:38;;;;;;;6.20;3.40;;;;;;;;;;5051920;28;20429;-80
2022/01/26 06:10:06;;;;;;;4.30;3.05;;;;;;;;;;5053489;28;20049;-81
2022/01/26 06:12:34;;;;;;;12.55;3.47;;;;;;;;;;5052892;28;20061;-83
2022/01/26 06:15:03;;;;;;;7.78;3.40;;;;;;;;;;5051458;28;20143;-83
2022/01/26 06:17:31;;;;;;;6.38;2.70;;;;;;;;;;5053033;28;20467;-82
2022/01/26 06:19:58;;;;;;;5.35;3.13;;;;;;;;;;5051609;28;20037;-80
2022/01/26 06:22:26;;;;;;;3.97;3.03;;;;;;;;;;5053712;28;20037;-80
2022/01/26 06:24:55;;;;;;;5.55;2.88;;;;;;;;;;5052030;28;20037;-83
2022/01/26 06:27:22;;;;;;;3.20;2.50;;;;;;;;;;5050584;28;20135;-81
2022/01/26 06:29:50;;;;;;;4.63;2.75;;;;;;;;;;5043832;28;20072;-79
2022/01/26 06:32:18;;;;;;;5.68;2.88;;;;;;;;;;5032318;28;20477;-83
2022/01/26 06:34:46;;;;;;;4.55;2.95;;;;;;;;;;5031464;28;20124;-81
2022/01/26 06:37:16;;;;;;;5.25;3.10;;;;;;;;;;5032117;28;20408;-82
2022/01/26 06:39:43;;;;;;;5.00;2.97;;;;;;;;;;5031902;28;20080;-82
2022/01/26 06:42:15;;;;;;;8.77;3.95;;;;;;;;;;5032701;28;20523;-81
2022/01/26 06:44:56;;;;;;;7.40;3.78;;;;;;;;;;5031381;28;20041;-81
2022/01/26 06:49:54;;;;;;;6.32;3.35;;;;;;;;;;5032680;28;20049;-82
2022/01/26 06:52:22;;;;;;;7.35;3.38;;;;;;;;;;5032051;28;20052;-83
2022/01/26 06:54:50;;;;;;;6.07;3.47;;;;;;;;;;5032276;28;20045;-83
2022/01/26 06:57:17;;;;;;;9.20;3.90;;;;;;;;;;5032826;28;20052;-83
2022/01/26 06:59:45;;;;;;;7.35;4.18;;;;;;;;;;5032391;28;20037;-83
2022/01/26 07:02:13;;;;;;;7.65;4.28;;;;;;;;;;5031713;28;20045;-84
2022/01/26 07:04:42;;;;;;;7.20;3.92;;;;;;;;;;5031137;28;20101;-84
2022/01/26 07:07:09;;;;;;;9.57;4.10;;;;;;;;;;5031620;28;20049;-83
2022/01/26 07:09:37;;;;;;;6.70;4.30;;;;;;;;;;5030802;28;20049;-84
2022/01/26 07:12:06;;;;;;;7.60;4.22;;;;;;;;;;5031335;28;20466;-81
2022/01/26 07:22:54;;;;;;;7.78;4.80;;;;;;;;;;5032703;28;20088;-81
2022/01/26 07:25:22;;;;;;;6.28;4.63;;;;;;;;;;5039016;28;20045;-82
2022/01/26 07:27:51;;;;;;;9.05;4.60;;;;;;;;;;5041043;28;20065;-82
2022/01/26 07:30:24;;;;;;;9.65;4.45;;;;;;;;;;5042580;28;20469;-81
2022/01/26 07:32:53;;;;;;;10.43;4.80;;;;;;;;;;5042528;28;20041;-83
2022/01/26 07:35:21;;;;;;;9.82;5.65;;;;;;;;;;5041074;28;20045;-82
2022/01/26 07:37:52;;;;;;;9.40;5.63;;;;;;;;;;5046057;28;20041;-82
2022/01/26 07:40:21;;;;;;;11.52;5.78;;;;;;;;;;5046786;28;20119;-83
2022/01/26 07:42:49;;;;;;;11.57;5.35;;;;;;;;;;5041192;28;20602;-83
2022/01/26 07:45:18;;;;;;;15.15;5.65;;;;;;;;;;5036459;28;20095;-83
2022/01/26 07:47:51;;;;;;;9.77;5.70;;;;;;;;;;5036888;28;20048;-81
2022/01/26 07:50:20;;;;;;;13.82;5.82;;;;;;;;;;5046247;28;20044;-81
2022/01/26 07:52:50;;;;;;;12.57;5.55;;;;;;;;;;5054385;28;20094;-81
2022/01/26 07:55:21;;;;;;;11.73;5.35;;;;;;;;;;5054223;28;20072;-82
2022/01/26 07:57:54;;;;;;;10.27;5.10;;;;;;;;;;5053729;28;20565;-81
2022/01/26 08:00:24;;;;;;;6.65;4.35;;;;;;;;;;5054725;28;20047;-82
2022/01/26 08:02:51;;;;;;;11.73;4.53;;;;;;;;;;5053707;28;20040;-82
2022/01/26 08:05:21;;;;;;;13.35;5.40;;;;;;;;;;5053646;28;20091;-81
2022/01/26 08:07:49;;;;;;;18.80;7.68;;;;;;;;;;5055457;28;20041;-82
2022/01/26 08:10:17;;;;;;;15.43;8.63;;;;;;;;;;5053652;28;20069;-77
2022/01/26 08:12:45;;;;;;;14.15;6.43;;;;;;;;;;5054711;28;20060;-78
2022/01/26 08:15:29;;;;;;;11.50;5.32;;;;;;;;;;5053481;28;20052;-77
2022/01/26 08:17:59;;;;;;;10.18;4.60;;;;;;;;;;5054182;28;20048;-78
2022/01/26 08:20:27;;;;;;;11.25;5.80;;;;;;;;;;5054862;28;20045;-78
2022/01/26 08:22:56;;;;;;;12.90;4.45;;;;;;;;;;5054294;28;20064;-78
2022/01/26 08:25:28;;;;;;;7.88;4.35;;;;;;;;;;5054103;28;20045;-78
2022/01/26 08:28:04;;;;;;;7.22;3.88;;;;;;;;;;5054637;28;20041;-78
2022/01/26 08:30:36;;;;;;;9.55;3.60;;;;;;;;;;5054610;28;20478;-78
2022/01/26 08:33:05;;;;;;;9.50;3.67;;;;;;;;;;5054812;28;20076;-77
2022/01/26 08:35:35;;;;;;;17.80;3.80;;;;;;;;;;5054606;28;20047;-78
2022/01/26 08:38:04;;;;;;;6.28;2.95;;;;;;;;;;5054384;28;20155;-78
2022/01/26 08:40:35;;;;;;;4.22;2.90;;;;;;;;;;5054437;28;20085;-78
2022/01/26 08:43:05;;;;;;;5.18;2.63;;;;;;;;;;5054075;28;20120;-78
2022/01/26 08:45:32;;;;;;;6.70;2.85;;;;;;;;;;5054378;28;20072;-77
2022/01/26 08:48:02;;;;;;;6.65;2.78;;;;;;;;;;5054338;28;20043;-78
2022/01/26 08:50:30;;;;;;;4.65;2.70;;;;;;;;;;5054240;28;20472;-77
2022/01/26 08:52:58;;;;;;;8.20;3.60;;;;;;;;;;5054108;28;20444;-78
2022/01/26 08:55:28;;;;;;;6.07;2.85;;;;;;;;;;5054139;28;20153;-77
2022/01/26 08:57:56;;;;;;;3.97;2.30;;;;;;;;;;5053987;28;20567;-79
2022/01/26 09:00:25;;;;;;;3.50;2.47;;;;;;;;;;5053666;28;20072;-79
2022/01/26 09:02:54;;;;;;;5.15;2.60;;;;;;;;;;5053692;28;20045;-78
2022/01/26 09:05:22;;;;;;;4.25;2.40;;;;;;;;;;5054044;28;20037;-78
2022/01/26 09:07:55;;;;;;;7.13;2.47;;;;;;;;;;5052614;28;20049;-78
2022/01/26 09:10:27;;;;;;;3.15;2.45;;;;;;;;;;5053990;28;20049;-78
2022/01/26 09:12:55;;;;;;;3.92;2.58;;;;;;;;;;5053350;28;20098;-77
2022/01/26 09:15:28;;;;;;;3.47;2.47;;;;;;;;;;5053556;28;20453;-79
2022/01/26 09:17:59;;;;;;;3.40;2.50;;;;;;;;;;5053514;28;20049;-78
2022/01/26 09:20:27;;;;;;;7.43;2.92;;;;;;;;;;5053767;28;20465;-79
2022/01/26 09:22:54;;;;;;;8.38;3.40;;;;;;;;;;5051999;28;20468;-79
2022/01/26 09:25:23;;;;;;;6.30;2.70;;;;;;;;;;5053136;28;20043;-79
2022/01/26 09:27:54;;;;;;;6.88;2.60;;;;;;;;;;5052402;28;20037;-78
2022/01/26 09:30:22;;;;;;;2.92;2.00;;;;;;;;;;5053496;28;20071;-79
2022/01/26 09:32:51;;;;;;;3.28;2.03;;;;;;;;;;5052201;28;20504;-78
2022/01/26 09:35:21;;;;;;;4.10;2.58;;;;;;;;;;5053385;28;20045;-79
2022/01/26 09:37:49;;;;;;;2.42;2.22;;;;;;;;;;5051728;28;20052;-78
2022/01/26 09:40:16;;;;;;;4.47;2.22;;;;;;;;;;5052982;28;20389;-79
2022/01/26 09:42:49;;;;;;;4.07;2.10;;;;;;;;;;5053357;28;20124;-79
2022/01/26 09:45:20;;;;;;;2.83;2.20;;;;;;;;;;5052947;28;20488;-78
2022/01/26 09:47:49;;;;;;;4.68;3.05;;;;;;;;;;5053038;28;20045;-79
2022/01/26 09:50:34;;;;;;;3.90;2.38;;;;;;;;;;5052843;28;20070;-78
2022/01/26 09:53:02;;;;;;;3.15;2.67;;;;;;;;;;5053137;28;20049;-78
2022/01/26 09:55:33;;;;;;;3.25;2.13;;;;;;;;;;5053093;28;20045;-79
2022/01/26 09:58:06;;;;;;;6.30;3.20;;;;;;;;;;5052684;28;20526;-79
2022/01/26 10:00:35;;;;;;;3.42;2.25;;;;;;;;;;5052491;28;20400;-80
2022/01/26 10:03:05;;;;;;;2.40;2.00;;;;;;;;;;5053192;28;20113;-77
2022/01/26 10:05:53;;;;;;;6.97;3.85;;;;;;;;;;5052967;28;20045;-77
2022/01/26 10:08:49;;;;;;;3.20;2.38;;;;;;;;;;5053214;28;20037;-78
2022/01/26 10:19:05;;;;;;;3.30;2.58;;;;;;;;;;5052702;28;20063;-74
2022/01/26 10:21:33;;;;;;;6.78;3.95;;;;;;;;;;5051503;28;20041;-73
2022/01/26 10:24:10;;;;;;;5.15;2.33;;;;;;;;;;5052658;28;20037;-76
2022/01/26 10:26:39;;;;;;;3.13;2.45;;;;;;;;;;5050768;28;20041;-73
2022/01/26 10:29:07;;;;;;;3.50;3.10;;;;;;;;;;5052610;28;20049;-76
2022/01/26 10:31:39;;;;;;;4.57;3.03;;;;;;;;;;5052730;28;20045;-72
2022/01/26 10:34:15;;;;;;;5.93;3.42;;;;;;;;;;5051705;28;20411;-75
2022/01/26 10:37:03;;;;;;;4.10;2.67;;;;;;;;;;5052260;28;20411;-74
2022/01/26 10:42:04;;;;;;;5.65;2.70;;;;;;;;;;5052143;28;20124;-72
2022/01/26 10:44:48;;;;;;;2.90;2.60;;;;;;;;;;5052174;28;20069;-75
2022/01/26 10:47:26;;;;;;;5.88;2.75;;;;;;;;;;5050836;28;20407;-72
2022/01/26 10:50:30;;;;;;;5.72;2.60;;;;;;;;;;5051519;28;20040;-72
2022/01/26 10:53:10;;;;;;;20.38;4.60;;;;;;;;;;5051799;28;20067;-75
2022/01/26 10:55:37;;;;;;;5.18;2.63;;;;;;;;;;5052069;28;20047;-74
2022/01/26 10:58:07;;;;;;;5.35;2.83;;;;;;;;;;5052011;28;20045;-77
2022/01/26 11:00:43;;;;;;;2.20;2.00;;;;;;;;;;5052151;28;20565;-76
2022/01/26 11:03:11;;;;;;;3.10;2.20;;;;;;;;;;5050682;28;20099;-76
2022/01/26 11:05:39;;;;;;;3.60;2.22;;;;;;;;;;5051861;28;20143;-73
2022/01/26 11:08:09;;;;;;;2.45;1.95;;;;;;;;;;5051037;28;20052;-77
2022/01/26 11:10:38;;;;;;;2.20;1.80;;;;;;;;;;5034046;28;20053;-74
2022/01/26 11:13:06;;;;;;;8.93;2.50;;;;;;;;;;5055468;28;20040;-76
2022/01/26 11:15:34;;;;;;;3.13;2.35;;;;;;;;;;5037895;28;20140;-73
2022/01/26 11:18:10;;;;;;;2.30;1.90;;;;;;;;;;5054647;28;20228;-73
2022/01/26 11:20:49;;;;;;;5.28;2.63;;;;;;;;;;5054489;28;20041;-73
2022/01/26 11:23:32;;;;;;;2.92;2.15;;;;;;;;;;5055147;28;20085;-72
2022/01/26 11:26:00;;;;;;;;;;;;;;;;;;5055652;28;20045;-76
2022/01/26 11:28:28;;;;;;;4.38;2.13;;;;;;;;;;5054309;28;20007;-77
2022/01/26 11:30:59;;;;;;;2.65;1.95;;;;;;;;;;5055484;28;20472;-72
2022/01/26 11:33:29;;;;;;;2.40;2.20;;;;;;;;;;5055244;28;20129;-72
2022/01/26 11:35:58;;;;;;;2.85;2.28;;;;;;;;;;5055244;28;20504;-73
2022/01/26 11:47:32;;;;;;;5.47;2.30;;;;;;;;;;5015923;28;20046;-73
2022/01/26 11:50:19;;;;;;;2.78;1.95;;;;;;;;;;5032770;28;20062;-74
2022/01/26 11:52:58;;;;;;;3.60;2.35;;;;;;;;;;5032867;28;20513;-75
2022/01/26 11:55:31;;;;;;;21.50;8.48;;;;;;;;;;5016174;28;20049;-72
2022/01/26 11:58:16;;;;;;;3.63;2.88;;;;;;;;;;5016292;28;20045;-74
2022/01/26 12:00:56;;;;;;;2.60;2.40;;;;;;;;;;5032175;28;20053;-72
2022/01/26 12:03:29;;;;;;;3.50;2.72;;;;;;;;;;5032563;28;20057;-72
2022/01/26 12:05:58;;;;;;;2.35;2.08;;;;;;;;;;5032911;28;20539;-74
2022/01/26 12:08:29;;;;;;;3.38;2.70;;;;;;;;;;5015651;28;20522;-73
2022/01/26 12:10:57;;;;;;;6.03;3.50;;;;;;;;;;5032529;28;20068;-74
2022/01/26 12:13:49;;;;;;;5.22;2.90;;;;;;;;;;5031909;28;20443;-74
2022/01/26 12:16:22;;;;;;;5.68;3.45;;;;;;;;;;5031851;28;20042;-72
2022/01/26 12:18:56;;;;;;;;;;;;;;;;;;5033009;28;20049;-76
2022/01/26 12:35:52;;;;;;;3.60;2.80;;;;;;;;;;5054379;28;20063;-75
2022/01/26 12:38:29;;;;;;;4.72;3.05;;;;;;;;;;5052521;28;20427;-74
2022/01/26 12:44:04;;;;;;;4.38;2.95;;;;;;;;;;5054316;28;20458;-76
2022/01/26 12:46:32;;;;;;;3.92;2.88;;;;;;;;;;5049897;28;20127;-74
2022/01/26 12:49:20;;;;;;;5.05;2.90;;;;;;;;;;5053578;28;20068;-73
2022/01/26 12:51:51;;;;;;;4.90;3.00;;;;;;;;;;5053960;28;20052;-73
2022/01/26 12:54:19;;;;;;;3.13;2.80;;;;;;;;;;5052971;28;20040;-73
2022/01/26 12:56:46;;;;;;;5.90;2.97;;;;;;;;;;5053982;28;20045;-75
2022/01/26 12:59:17;;;;;;;5.30;3.42;;;;;;;;;;5053660;28;20041;-76
2022/01/26 13:01:47;;;;;;;6.65;3.25;;;;;;;;;;5053198;28;20041;-76
2022/01/26 13:04:35;;;;;;;5.53;3.20;;;;;;;;;;5052391;28;20037;-75
2022/01/26 13:07:05;;;;;;;5.63;3.28;;;;;;;;;;5053712;28;20044;-76
2022/01/26 13:09:41;;;;;;;4.68;3.40;;;;;;;;;;5052278;28;20411;-74
2022/01/26 13:12:09;;;;;;;5.95;3.72;;;;;;;;;;5052094;28;20096;-72
2022/01/26 13:14:45;;;;;;;4.32;3.10;;;;;;;;;;5053384;28;20045;-73
2022/01/26 13:20:01;;;;;;;4.28;2.75;;;;;;;;;;5053305;28;20135;-77
2022/01/26 13:25:49;;;;;;;4.22;2.40;;;;;;;;;;5046535;28;20043;-73
2022/01/26 13:55:46;;;;;;;4.90;2.83;;;;;;;;;;4980517;28;20049;-73
2022/01/26 14:00:57;;;;;;;4.38;3.13;;;;;;;;;;4982772;28;20043;-73
2022/01/26 14:03:28;;;;;;;6.65;3.05;;;;;;;;;;4982490;28;20050;-76
2022/01/26 14:05:56;;;;;;;6.47;3.35;;;;;;;;;;4976895;28;20053;-77
2022/01/26 14:08:23;;;;;;;4.00;3.08;;;;;;;;;;4981445;28;20599;-72
2022/01/26 14:10:52;;;;;;;3.72;2.67;;;;;;;;;;4971396;28;20054;-72
2022/01/26 14:13:22;;;;;;;4.70;3.00;;;;;;;;;;4990425;28;20548;-71
2022/01/26 14:15:52;;;;;;;6.18;2.60;;;;;;;;;;4990752;28;20053;-71
2022/01/26 14:23:42;;;;;;;5.07;3.00;;;;;;;;;;4990110;28;20042;-76
2022/01/26 14:26:10;;;;;;;4.35;3.17;;;;;;;;;;5015346;28;20484;-73
2022/01/26 14:28:38;;;;;;;8.82;2.92;;;;;;;;;;5051493;28;20051;-72
2022/01/26 14:56:15;;;;;;;3.58;2.50;;;;;;;;;;5049076;28;20060;-72
2022/01/26 15:40:27;;;;;;;5.43;3.10;;;;;;;;;;5053983;28;20045;-71
2022/01/26 15:51:07;;;;;;;6.50;2.88;;;;;;;;;;5055149;28;20087;-76
2022/01/26 15:59:07;;;;;;;12.43;7.28;;;;;;;;;;5042714;28;20069;-76
2022/01/26 18:16:01;;;;;;;12.80;6.85;;;;;;;;;;5025928;28;20049;-80
2022/01/26 18:27:03;;;;;;;14.93;7.18;;;;;;;;;;5037810;28;20069;-72
2022/01/26 18:32:27;;;;;;;15.20;7.80;;;;;;;;;;5031576;28;20048;-74
2022/01/26 18:46:24;;;;;;;12.85;6.90;;;;;;;;;;5044765;28;20045;-80
2022/01/26 18:51:41;;;;;;;11.93;6.97;;;;;;;;;;5042211;28;20758;-76
2022/01/26 18:54:10;;;;;;;11.82;7.40;;;;;;;;;;5049895;28;20038;-71
2022/01/26 18:56:41;;;;;;;11.90;6.65;;;;;;;;;;5040407;28;20043;-77
2022/01/26 18:59:10;;;;;;;10.07;6.47;;;;;;;;;;5042407;28;20044;-77
2022/01/26 19:01:38;;;;;;;12.45;6.95;;;;;;;;;;5037221;28;20163;-75
2022/01/26 19:04:34;;;;;;;12.48;7.60;;;;;;;;;;5039172;28;20087;-74
2022/01/26 19:07:02;;;;;;;11.65;7.30;;;;;;;;;;5039573;28;20034;-77
2022/01/26 19:09:33;;;;;;;15.57;7.97;;;;;;;;;;5046439;28;20098;-75
2022/01/26 19:12:02;;;;;;;12.55;7.18;;;;;;;;;;5039638;28;20075;-70
2022/01/26 19:14:35;;;;;;;14.13;7.90;;;;;;;;;;5043531;28;20037;-76
2022/01/26 19:17:13;;;;;;;15.15;7.47;;;;;;;;;;5040254;28;20048;-76
2022/01/26 19:19:54;;;;;;;13.45;7.38;;;;;;;;;;5041231;28;20080;-70
2022/01/26 19:27:45;;;;;;;9.70;6.43;;;;;;;;;;5047856;28;20051;-71
2022/01/26 19:52:09;;;;;;;9.20;5.75;;;;;;;;;;5044392;28;20053;-74
2022/01/26 19:54:35;;;;;;;11.82;6.05;;;;;;;;;;5054365;28;20047;-71
2022/01/26 19:57:03;;;;;;;12.00;6.63;;;;;;;;;;5053881;28;20102;-76
2022/01/26 19:59:33;;;;;;;11.80;6.88;;;;;;;;;;5033535;28;20080;-74
2022/01/26 20:02:05;;;;;;;16.05;7.05;;;;;;;;;;5049280;28;20053;-77
2022/01/26 20:04:34;;;;;;;11.50;7.20;;;;;;;;;;5044861;28;20045;-78
2022/01/26 20:07:07;;;;;;;13.52;6.80;;;;;;;;;;5044107;28;20183;-70
2022/01/26 20:09:40;;;;;;;14.57;7.45;;;;;;;;;;5044937;28;20043;-70
2022/01/26 20:12:17;;;;;;;12.07;7.00;;;;;;;;;;5044988;28;20068;-70
2022/01/26 20:14:45;;;;;;;11.55;6.80;;;;;;;;;;5042719;28;20056;-70
2022/01/26 20:17:13;;;;;;;11.38;7.68;;;;;;;;;;5044114;28;20128;-71
2022/01/26 20:19:40;;;;;;;10.00;6.35;;;;;;;;;;5018509;28;20136;-76
2022/01/26 20:22:08;;;;;;;10.85;7.07;;;;;;;;;;5039545;28;20045;-76
2022/01/26 20:24:36;;;;;;;15.57;7.18;;;;;;;;;;5030107;28;20069;-70
2022/01/26 20:27:07;;;;;;;12.70;6.97;;;;;;;;;;5043864;28;20052;-73
2022/01/26 20:29:41;;;;;;;13.20;7.00;;;;;;;;;;5040619;28;20041;-77
2022/01/26 20:32:09;;;;;;;10.95;7.40;;;;;;;;;;5045947;28;20037;-73
2022/01/26 20:34:37;;;;;;;11.70;7.55;;;;;;;;;;5044861;28;20061;-72
2022/01/26 20:37:05;;;;;;;13.75;7.40;;;;;;;;;;5036799;28;20056;-70
2022/01/26 20:39:33;;;;;;;12.52;7.00;;;;;;;;;;5043590;28;20052;-71
2022/01/26 20:42:01;;;;;;;13.70;7.72;;;;;;;;;;5041662;28;20049;-71
2022/01/26 20:44:29;;;;;;;13.52;7.80;;;;;;;;;;5036390;28;20064;-70
2022/01/26 20:46:57;;;;;;;13.57;7.32;;;;;;;;;;5034184;28;20041;-73
2022/01/26 20:49:25;;;;;;;12.57;7.80;;;;;;;;;;5038203;28;20059;-78
2022/01/26 20:51:52;;;;;;;12.18;7.78;;;;;;;;;;5043652;28;20036;-75
2022/01/26 20:54:20;;;;;;;12.85;7.38;;;;;;;;;;5032717;28;20061;-71
2022/01/26 20:56:48;;;;;;;11.38;7.60;;;;;;;;;;5033955;28;20037;-75
2022/01/26 20:59:15;;;;;;;14.48;7.90;;;;;;;;;;5053299;28;20044;-72
2022/01/26 21:01:43;;;;;;;11.52;7.25;;;;;;;;;;5039758;28;20045;-71
2022/01/26 21:04:11;;;;;;;11.88;6.68;;;;;;;;;;5033143;28;20044;-76
2022/01/26 21:06:40;;;;;;;9.73;7.30;;;;;;;;;;5032099;28;20616;-73
2022/01/26 21:09:10;;;;;;;11.30;7.20;;;;;;;;;;5042577;28;20130;-71
2022/01/26 21:11:37;;;;;;;15.30;8.30;;;;;;;;;;5043692;28;20051;-72
2022/01/26 21:14:05;;;;;;;12.77;8.05;;;;;;;;;;5045129;28;20033;-77
2022/01/26 21:16:32;;;;;;;10.80;7.75;;;;;;;;;;5053124;28;20052;-74
2022/01/26 21:19:00;;;;;;;14.68;7.95;;;;;;;;;;5053423;28;20049;-73
2022/01/26 21:21:28;;;;;;;14.50;8.20;;;;;;;;;;5053070;28;20148;-77
2022/01/26 21:23:56;;;;;;;12.60;7.97;;;;;;;;;;5052090;28;20037;-77
2022/01/26 21:26:24;;;;;;;13.88;8.32;;;;;;;;;;5051405;28;20037;-73
2022/01/26 21:28:52;;;;;;;12.20;7.43;;;;;;;;;;5053223;28;20049;-71
2022/01/26 21:31:20;;;;;;;14.57;8.20;;;;;;;;;;5053147;28;20377;-71
2022/01/26 21:33:48;;;;;;;13.02;7.93;;;;;;;;;;5053186;28;20094;-71
2022/01/26 21:36:16;;;;;;;15.13;9.68;;;;;;;;;;5051909;28;20130;-70
2022/01/26 21:38:46;;;;;;;16.40;9.48;;;;;;;;;;5051583;28;20051;-73
2022/01/26 21:41:16;;;;;;;16.02;9.30;;;;;;;;;;5052945;28;20041;-70
2022/01/26 21:43:43;;;;;;;13.00;8.93;;;;;;;;;;5051693;28;20116;-73
2022/01/26 21:46:12;;;;;;;15.57;9.85;;;;;;;;;;5051626;28;20366;-74
2022/01/26 21:48:39;;;;;;;13.73;9.27;;;;;;;;;;5053055;28;20110;-70
2022/01/26 21:51:07;;;;;;;17.52;9.10;;;;;;;;;;5052867;28;20056;-75
2022/01/26 21:53:34;;;;;;;14.70;9.45;;;;;;;;;;5035121;28;20059;-75
2022/01/26 21:56:06;;;;;;;16.17;10.15;;;;;;;;;;5048634;28;20053;-74
2022/01/26 21:58:33;;;;;;;13.68;9.52;;;;;;;;;;5033574;28;20469;-73
2022/01/26 22:01:01;;;;;;;12.73;8.38;;;;;;;;;;5031446;28;20053;-71
2022/01/26 22:03:29;;;;;;;12.90;8.40;;;;;;;;;;5014719;28;20046;-70
2022/01/26 22:05:57;;;;;;;12.68;8.07;;;;;;;;;;5032567;28;20056;-73
2022/01/26 22:08:27;;;;;;;14.95;7.70;;;;;;;;;;5031334;28;20350;-71
2022/01/26 22:10:54;;;;;;;12.23;7.43;;;;;;;;;;5093094;22;20070;-79
2022/01/26 22:13:22;;;;;;;11.88;7.50;;;;;;;;;;4993600;28;20145;-78
2022/01/26 22:15:51;;;;;;;15.40;7.82;;;;;;;;;;4976495;28;20053;-77
2022/01/26 22:18:18;;;;;;;14.13;7.45;;;;;;;;;;4993525;28;20093;-76
2022/01/26 22:20:48;;;;;;;11.38;7.75;;;;;;;;;;4993251;28;20046;-76
2022/01/26 22:23:17;;;;;;;14.50;7.63;;;;;;;;;;4992141;28;20046;-73